sensor_id;sensor_type;location;lat;lon;timestamp;temperature;humidity
13433;DHT22;6789;47.678;9.158;2023-07-28T00:00:31;17.30;99.90
13433;DHT22;6789;47.678;9.158;2023-07-28T00:05:23;17.10;99.90
13433;DHT22;6789;47.678;9.158;2023-07-28T00:10:14;16.90;99.90
13433;DHT22;6789;47.678;9.158;2023-07-28T00:15:06;16.80;99.90
13433;DHT22;6789;47.678;9.158;2023-07-28T00:19:58;16.80;99.90
13433;DHT22;6789;47.678;9.158;2023-07-28T00:24:50;17.10;99.90
13433;DHT22;6789;47.678;9.158;2023-07-28T00:29:42;17.30;99.90
13433;DHT22;6789;47.678;9.158;2023-07-28T00:34:33;17.30;99.90
13433;DHT22;6789;47.678;9.158;2023-07-28T00:39:25;17.30;99.90
13433;DHT22;6789;47.678;9.158;2023-07-28T00:44:17;17.20;99.90
13433;DHT22;6789;47.678;9.158;2023-07-28T00:49:09;17.20;99.90
13433;DHT22;6789;47.678;9.158;2023-07-28T00:54:02;17.10;99.90
13433;DHT22;6789;47.678;9.158;2023-07-28T00:58:56;17.20;99.90
13433;DHT22;6789;47.678;9.158;2023-07-28T01:03:50;17.00;99.90
13433;DHT22;6789;47.678;9.158;2023-07-28T01:08:57;16.80;99.90
13433;DHT22;6789;47.678;9.158;2023-07-28T01:13:54;16.70;99.90
13433;DHT22;6789;47.678;9.158;2023-07-28T01:18:46;16.70;99.90
13433;DHT22;6789;47.678;9.158;2023-07-28T01:23:59;16.70;99.90
13433;DHT22;6789;47.678;9.158;2023-07-28T01:28:56;17.00;99.90
13433;DHT22;6789;47.678;9.158;2023-07-28T01:33:48;17.20;99.90
13433;DHT22;6789;47.678;9.158;2023-07-28T01:38:40;17.10;99.90
13433;DHT22;6789;47.678;9.158;2023-07-28T01:43:32;16.90;99.90
13433;DHT22;6789;47.678;9.158;2023-07-28T01:48:24;16.70;99.90
13433;DHT22;6789;47.678;9.158;2023-07-28T01:53:17;16.70;99.90
13433;DHT22;6789;47.678;9.158;2023-07-28T01:58:09;16.50;99.90
13433;DHT22;6789;47.678;9.158;2023-07-28T02:03:01;16.40;99.90
13433;DHT22;6789;47.678;9.158;2023-07-28T02:07:55;16.50;99.90
13433;DHT22;6789;47.678;9.158;2023-07-28T02:12:47;16.80;99.90
13433;DHT22;6789;47.678;9.158;2023-07-28T02:17:39;17.00;99.90
13433;DHT22;6789;47.678;9.158;2023-07-28T02:22:31;17.10;99.90
13433;DHT22;6789;47.678;9.158;2023-07-28T02:27:23;17.00;99.90
13433;DHT22;6789;47.678;9.158;2023-07-28T02:32:14;16.80;99.90
13433;DHT22;6789;47.678;9.158;2023-07-28T02:37:06;16.90;99.90
13433;DHT22;6789;47.678;9.158;2023-07-28T02:41:58;17.10;99.90
13433;DHT22;6789;47.678;9.158;2023-07-28T02:46:50;17.10;99.90
13433;DHT22;6789;47.678;9.158;2023-07-28T02:51:42;17.20;99.90
13433;DHT22;6789;47.678;9.158;2023-07-28T02:56:34;17.00;99.90
13433;DHT22;6789;47.678;9.158;2023-07-28T03:01:31;17.20;99.90
13433;DHT22;6789;47.678;9.158;2023-07-28T03:06:27;17.50;99.90
13433;DHT22;6789;47.678;9.158;2023-07-28T03:11:19;17.50;99.90
13433;DHT22;6789;47.678;9.158;2023-07-28T03:16:11;17.40;99.90
13433;DHT22;6789;47.678;9.158;2023-07-28T03:21:03;17.40;99.90
13433;DHT22;6789;47.678;9.158;2023-07-28T03:25:55;17.10;99.90
13433;DHT22;6789;47.678;9.158;2023-07-28T03:30:47;17.00;99.90
13433;DHT22;6789;47.678;9.158;2023-07-28T03:35:38;16.80;99.90
13433;DHT22;6789;47.678;9.158;2023-07-28T03:40:30;16.70;99.90
13433;DHT22;6789;47.678;9.158;2023-07-28T03:45:22;16.60;99.90
13433;DHT22;6789;47.678;9.158;2023-07-28T03:50:14;16.60;99.90
13433;DHT22;6789;47.678;9.158;2023-07-28T03:55:06;16.50;99.90
13433;DHT22;6789;47.678;9.158;2023-07-28T03:59:58;16.70;99.90
13433;DHT22;6789;47.678;9.158;2023-07-28T04:04:56;16.70;99.90
13433;DHT22;6789;47.678;9.158;2023-07-28T04:09:49;16.70;99.90
13433;DHT22;6789;47.678;9.158;2023-07-28T04:14:41;16.70;99.90
13433;DHT22;6789;47.678;9.158;2023-07-28T04:19:33;16.70;99.90
13433;DHT22;6789;47.678;9.158;2023-07-28T04:24:26;16.90;99.90
13433;DHT22;6789;47.678;9.158;2023-07-28T04:29:18;17.00;99.90
13433;DHT22;6789;47.678;9.158;2023-07-28T04:34:10;17.00;99.90
13433;DHT22;6789;47.678;9.158;2023-07-28T04:39:02;17.30;99.90
13433;DHT22;6789;47.678;9.158;2023-07-28T04:43:54;17.40;99.90
13433;DHT22;6789;47.678;9.158;2023-07-28T04:48:46;17.60;99.90
13433;DHT22;6789;47.678;9.158;2023-07-28T04:53:38;17.70;99.90
13433;DHT22;6789;47.678;9.158;2023-07-28T04:58:29;17.80;99.90
13433;DHT22;6789;47.678;9.158;2023-07-28T05:03:21;17.70;99.90
13433;DHT22;6789;47.678;9.158;2023-07-28T05:08:13;17.70;99.90
13433;DHT22;6789;47.678;9.158;2023-07-28T05:13:05;18.00;99.90
13433;DHT22;6789;47.678;9.158;2023-07-28T05:17:57;18.60;99.90
13433;DHT22;6789;47.678;9.158;2023-07-28T05:22:49;19.20;99.90
13433;DHT22;6789;47.678;9.158;2023-07-28T05:27:41;19.70;99.90
13433;DHT22;6789;47.678;9.158;2023-07-28T05:32:33;19.40;99.90
13433;DHT22;6789;47.678;9.158;2023-07-28T05:37:25;20.30;99.90
13433;DHT22;6789;47.678;9.158;2023-07-28T05:42:17;22.20;99.90
13433;DHT22;6789;47.678;9.158;2023-07-28T05:47:09;23.80;99.90
13433;DHT22;6789;47.678;9.158;2023-07-28T05:52:06;25.80;99.90
13433;DHT22;6789;47.678;9.158;2023-07-28T05:56:58;26.50;99.90
13433;DHT22;6789;47.678;9.158;2023-07-28T06:01:50;27.30;99.90
13433;DHT22;6789;47.678;9.158;2023-07-28T06:06:42;27.60;99.90
13433;DHT22;6789;47.678;9.158;2023-07-28T06:11:34;28.30;99.90
13433;DHT22;6789;47.678;9.158;2023-07-28T06:16:26;28.00;99.90
13433;DHT22;6789;47.678;9.158;2023-07-28T06:21:18;28.10;99.90
13433;DHT22;6789;47.678;9.158;2023-07-28T06:26:15;28.70;99.90
13433;DHT22;6789;47.678;9.158;2023-07-28T06:31:06;29.00;99.90
13433;DHT22;6789;47.678;9.158;2023-07-28T06:35:58;29.20;99.90
13433;DHT22;6789;47.678;9.158;2023-07-28T06:40:50;29.00;99.90
13433;DHT22;6789;47.678;9.158;2023-07-28T06:45:42;28.20;99.90
13433;DHT22;6789;47.678;9.158;2023-07-28T06:50:34;27.60;99.90
13433;DHT22;6789;47.678;9.158;2023-07-28T06:55:26;27.10;99.90
13433;DHT22;6789;47.678;9.158;2023-07-28T07:00:18;26.70;99.90
13433;DHT22;6789;47.678;9.158;2023-07-28T07:05:10;26.30;99.90
13433;DHT22;6789;47.678;9.158;2023-07-28T07:10:03;26.00;99.90
13433;DHT22;6789;47.678;9.158;2023-07-28T07:14:55;26.20;99.90
13433;DHT22;6789;47.678;9.158;2023-07-28T07:19:47;26.10;99.90
13433;DHT22;6789;47.678;9.158;2023-07-28T07:24:39;26.10;99.90
13433;DHT22;6789;47.678;9.158;2023-07-28T07:29:32;25.90;99.90
13433;DHT22;6789;47.678;9.158;2023-07-28T07:34:24;26.30;99.90
13433;DHT22;6789;47.678;9.158;2023-07-28T07:39:16;26.70;99.90
13433;DHT22;6789;47.678;9.158;2023-07-28T07:44:08;26.80;99.90
13433;DHT22;6789;47.678;9.158;2023-07-28T07:49:00;27.10;99.90
13433;DHT22;6789;47.678;9.158;2023-07-28T07:53:52;27.30;99.90
13433;DHT22;6789;47.678;9.158;2023-07-28T07:58:44;27.50;99.90
13433;DHT22;6789;47.678;9.158;2023-07-28T08:03:44;27.30;99.90
13433;DHT22;6789;47.678;9.158;2023-07-28T08:08:36;27.00;99.90
13433;DHT22;6789;47.678;9.158;2023-07-28T08:13:27;26.60;99.90
13433;DHT22;6789;47.678;9.158;2023-07-28T08:18:20;27.10;99.90
13433;DHT22;6789;47.678;9.158;2023-07-28T08:23:11;27.30;99.90
13433;DHT22;6789;47.678;9.158;2023-07-28T08:28:03;27.20;99.90
13433;DHT22;6789;47.678;9.158;2023-07-28T08:32:55;27.10;99.90
13433;DHT22;6789;47.678;9.158;2023-07-28T08:37:48;26.70;99.90
13433;DHT22;6789;47.678;9.158;2023-07-28T08:42:40;27.00;99.90
13433;DHT22;6789;47.678;9.158;2023-07-28T08:47:33;27.00;99.90
13433;DHT22;6789;47.678;9.158;2023-07-28T08:52:28;26.90;99.90
13433;DHT22;6789;47.678;9.158;2023-07-28T08:57:21;26.70;99.90
13433;DHT22;6789;47.678;9.158;2023-07-28T09:02:17;26.50;99.90
13433;DHT22;6789;47.678;9.158;2023-07-28T09:07:10;25.90;99.90
13433;DHT22;6789;47.678;9.158;2023-07-28T09:12:02;26.10;99.90
13433;DHT22;6789;47.678;9.158;2023-07-28T09:22:03;25.60;99.90
13433;DHT22;6789;47.678;9.158;2023-07-28T09:27:00;25.50;99.90
13433;DHT22;6789;47.678;9.158;2023-07-28T09:31:53;25.70;99.90
13433;DHT22;6789;47.678;9.158;2023-07-28T09:36:58;25.70;99.90
13433;DHT22;6789;47.678;9.158;2023-07-28T09:41:52;25.70;99.90
13433;DHT22;6789;47.678;9.158;2023-07-28T09:51:46;25.70;99.90
13433;DHT22;6789;47.678;9.158;2023-07-28T09:56:51;25.80;99.90
13433;DHT22;6789;47.678;9.158;2023-07-28T10:01:51;26.20;99.90
13433;DHT22;6789;47.678;9.158;2023-07-28T10:06:43;26.60;99.90
13433;DHT22;6789;47.678;9.158;2023-07-28T10:11:36;26.70;99.90
13433;DHT22;6789;47.678;9.158;2023-07-28T10:16:38;26.70;99.90
13433;DHT22;6789;47.678;9.158;2023-07-28T10:21:30;26.80;99.90
13433;DHT22;6789;47.678;9.158;2023-07-28T10:26:39;26.90;99.90
13433;DHT22;6789;47.678;9.158;2023-07-28T10:31:36;27.10;99.90
13433;DHT22;6789;47.678;9.158;2023-07-28T10:41:20;27.40;99.90
13433;DHT22;6789;47.678;9.158;2023-07-28T10:46:16;27.40;99.90
13433;DHT22;6789;47.678;9.158;2023-07-28T10:51:10;27.60;99.90
13433;DHT22;6789;47.678;9.158;2023-07-28T10:56:03;27.50;99.90
13433;DHT22;6789;47.678;9.158;2023-07-28T11:00:59;27.80;99.90
13433;DHT22;6789;47.678;9.158;2023-07-28T11:05:54;28.10;99.90
13433;DHT22;6789;47.678;9.158;2023-07-28T11:10:47;28.40;99.90
13433;DHT22;6789;47.678;9.158;2023-07-28T11:15:39;28.00;99.90
13433;DHT22;6789;47.678;9.158;2023-07-28T11:20:31;28.10;99.90
13433;DHT22;6789;47.678;9.158;2023-07-28T11:25:26;28.30;99.90
13433;DHT22;6789;47.678;9.158;2023-07-28T11:30:21;28.00;99.90
13433;DHT22;6789;47.678;9.158;2023-07-28T11:35:16;27.90;99.90
13433;DHT22;6789;47.678;9.158;2023-07-28T11:40:10;27.90;99.90
13433;DHT22;6789;47.678;9.158;2023-07-28T11:45:07;27.80;99.90
13433;DHT22;6789;47.678;9.158;2023-07-28T11:50:02;27.50;99.90
13433;DHT22;6789;47.678;9.158;2023-07-28T11:54:54;27.50;99.90
13433;DHT22;6789;47.678;9.158;2023-07-28T12:00:12;27.40;99.90
13433;DHT22;6789;47.678;9.158;2023-07-28T12:05:15;27.30;99.90
13433;DHT22;6789;47.678;9.158;2023-07-28T12:10:12;27.50;99.90
13433;DHT22;6789;47.678;9.158;2023-07-28T12:15:27;27.60;99.90
13433;DHT22;6789;47.678;9.158;2023-07-28T12:20:23;27.50;99.90
13433;DHT22;6789;47.678;9.158;2023-07-28T12:25:15;27.50;99.90
13433;DHT22;6789;47.678;9.158;2023-07-28T12:30:07;27.30;99.90
13433;DHT22;6789;47.678;9.158;2023-07-28T12:35:07;27.60;99.90
13433;DHT22;6789;47.678;9.158;2023-07-28T12:40:03;28.20;99.90
13433;DHT22;6789;47.678;9.158;2023-07-28T12:44:57;28.20;99.90
13433;DHT22;6789;47.678;9.158;2023-07-28T12:49:52;28.60;99.90
13433;DHT22;6789;47.678;9.158;2023-07-28T12:54:44;28.60;99.90
13433;DHT22;6789;47.678;9.158;2023-07-28T12:59:36;28.30;99.90
13433;DHT22;6789;47.678;9.158;2023-07-28T13:04:48;28.30;99.90
13433;DHT22;6789;47.678;9.158;2023-07-28T13:09:40;28.30;99.90
13433;DHT22;6789;47.678;9.158;2023-07-28T13:14:34;28.10;99.90
13433;DHT22;6789;47.678;9.158;2023-07-28T13:19:25;28.00;99.90
13433;DHT22;6789;47.678;9.158;2023-07-28T13:24:17;27.90;99.90
13433;DHT22;6789;47.678;9.158;2023-07-28T13:29:09;28.00;99.90
13433;DHT22;6789;47.678;9.158;2023-07-28T13:34:01;28.30;99.90
13433;DHT22;6789;47.678;9.158;2023-07-28T13:38:52;28.40;99.90
13433;DHT22;6789;47.678;9.158;2023-07-28T13:43:44;28.30;99.90
13433;DHT22;6789;47.678;9.158;2023-07-28T13:48:36;28.20;99.90
13433;DHT22;6789;47.678;9.158;2023-07-28T13:53:43;28.10;99.90
13433;DHT22;6789;47.678;9.158;2023-07-28T13:58:54;28.00;99.90
13433;DHT22;6789;47.678;9.158;2023-07-28T14:03:46;28.10;99.90
13433;DHT22;6789;47.678;9.158;2023-07-28T14:08:38;27.90;99.90
13433;DHT22;6789;47.678;9.158;2023-07-28T14:13:30;27.90;99.90
13433;DHT22;6789;47.678;9.158;2023-07-28T14:18:23;27.90;99.90
13433;DHT22;6789;47.678;9.158;2023-07-28T14:23:23;27.70;99.90
13433;DHT22;6789;47.678;9.158;2023-07-28T14:28:16;27.90;99.90
13433;DHT22;6789;47.678;9.158;2023-07-28T14:33:08;28.00;99.90
13433;DHT22;6789;47.678;9.158;2023-07-28T14:38:00;28.10;99.90
13433;DHT22;6789;47.678;9.158;2023-07-28T14:42:52;28.30;99.90
13433;DHT22;6789;47.678;9.158;2023-07-28T14:47:44;27.90;99.90
13433;DHT22;6789;47.678;9.158;2023-07-28T14:52:36;27.30;99.90
13433;DHT22;6789;47.678;9.158;2023-07-28T14:57:30;27.20;99.90
13433;DHT22;6789;47.678;9.158;2023-07-28T15:02:25;27.20;99.90
13433;DHT22;6789;47.678;9.158;2023-07-28T15:07:17;26.90;99.90
13433;DHT22;6789;47.678;9.158;2023-07-28T15:12:10;26.60;99.90
13433;DHT22;6789;47.678;9.158;2023-07-28T15:17:02;26.30;99.90
13433;DHT22;6789;47.678;9.158;2023-07-28T15:21:54;26.00;99.90
13433;DHT22;6789;47.678;9.158;2023-07-28T15:26:46;25.80;99.90
13433;DHT22;6789;47.678;9.158;2023-07-28T15:31:41;25.40;99.90
13433;DHT22;6789;47.678;9.158;2023-07-28T15:36:33;24.40;99.90
13433;DHT22;6789;47.678;9.158;2023-07-28T15:41:25;23.40;99.90
13433;DHT22;6789;47.678;9.158;2023-07-28T15:46:18;22.80;99.90
13433;DHT22;6789;47.678;9.158;2023-07-28T15:51:10;22.20;99.90
13433;DHT22;6789;47.678;9.158;2023-07-28T15:56:02;21.80;99.90
13433;DHT22;6789;47.678;9.158;2023-07-28T16:00:54;21.60;99.90
13433;DHT22;6789;47.678;9.158;2023-07-28T16:05:46;21.50;99.90
13433;DHT22;6789;47.678;9.158;2023-07-28T16:10:38;21.80;99.90
13433;DHT22;6789;47.678;9.158;2023-07-28T16:15:30;22.30;99.90
13433;DHT22;6789;47.678;9.158;2023-07-28T16:20:21;22.00;99.90
13433;DHT22;6789;47.678;9.158;2023-07-28T16:25:15;21.60;99.90
13433;DHT22;6789;47.678;9.158;2023-07-28T16:30:08;21.30;99.90
13433;DHT22;6789;47.678;9.158;2023-07-28T16:35:00;21.20;99.90
13433;DHT22;6789;47.678;9.158;2023-07-28T16:39:52;21.00;99.90
13433;DHT22;6789;47.678;9.158;2023-07-28T16:44:44;21.00;99.90
13433;DHT22;6789;47.678;9.158;2023-07-28T16:49:35;21.20;99.90
13433;DHT22;6789;47.678;9.158;2023-07-28T16:54:28;21.60;99.90
13433;DHT22;6789;47.678;9.158;2023-07-28T16:59:20;21.90;99.90
13433;DHT22;6789;47.678;9.158;2023-07-28T17:04:12;22.20;99.90
13433;DHT22;6789;47.678;9.158;2023-07-28T17:09:04;22.00;99.90
13433;DHT22;6789;47.678;9.158;2023-07-28T17:13:57;22.10;99.90
13433;DHT22;6789;47.678;9.158;2023-07-28T17:18:49;22.20;99.90
13433;DHT22;6789;47.678;9.158;2023-07-28T17:23:43;22.00;99.90
13433;DHT22;6789;47.678;9.158;2023-07-28T17:28:35;21.90;99.90
13433;DHT22;6789;47.678;9.158;2023-07-28T17:33:27;21.90;99.90
13433;DHT22;6789;47.678;9.158;2023-07-28T17:38:19;21.90;99.90
13433;DHT22;6789;47.678;9.158;2023-07-28T17:43:11;22.00;99.90
13433;DHT22;6789;47.678;9.158;2023-07-28T17:48:05;21.90;99.90
13433;DHT22;6789;47.678;9.158;2023-07-28T17:53:00;21.80;99.90
13433;DHT22;6789;47.678;9.158;2023-07-28T17:57:51;21.80;99.90
13433;DHT22;6789;47.678;9.158;2023-07-28T18:02:43;21.90;99.90
13433;DHT22;6789;47.678;9.158;2023-07-28T18:07:35;21.90;99.90
13433;DHT22;6789;47.678;9.158;2023-07-28T18:12:28;21.90;99.90
13433;DHT22;6789;47.678;9.158;2023-07-28T18:17:21;21.90;99.90
13433;DHT22;6789;47.678;9.158;2023-07-28T18:22:14;21.80;99.90
13433;DHT22;6789;47.678;9.158;2023-07-28T18:27:07;21.70;99.90
13433;DHT22;6789;47.678;9.158;2023-07-28T18:31:59;21.70;99.90
13433;DHT22;6789;47.678;9.158;2023-07-28T18:36:52;21.70;99.90
13433;DHT22;6789;47.678;9.158;2023-07-28T18:41:44;21.50;99.90
13433;DHT22;6789;47.678;9.158;2023-07-28T18:46:36;21.40;99.90
13433;DHT22;6789;47.678;9.158;2023-07-28T18:51:28;21.50;99.90
13433;DHT22;6789;47.678;9.158;2023-07-28T18:56:23;21.40;99.90
13433;DHT22;6789;47.678;9.158;2023-07-28T19:01:16;21.10;99.90
13433;DHT22;6789;47.678;9.158;2023-07-28T19:06:08;21.30;99.90
13433;DHT22;6789;47.678;9.158;2023-07-28T19:11:00;21.30;99.90
13433;DHT22;6789;47.678;9.158;2023-07-28T19:15:52;21.30;99.90
13433;DHT22;6789;47.678;9.158;2023-07-28T19:20:44;21.20;99.90
13433;DHT22;6789;47.678;9.158;2023-07-28T19:25:37;21.00;99.90
13433;DHT22;6789;47.678;9.158;2023-07-28T19:30:31;21.10;99.90
13433;DHT22;6789;47.678;9.158;2023-07-28T19:35:23;21.00;99.90
13433;DHT22;6789;47.678;9.158;2023-07-28T19:40:15;21.00;99.90
13433;DHT22;6789;47.678;9.158;2023-07-28T19:45:08;21.00;99.90
13433;DHT22;6789;47.678;9.158;2023-07-28T19:50:00;21.00;99.90
13433;DHT22;6789;47.678;9.158;2023-07-28T19:55:04;21.00;99.90
13433;DHT22;6789;47.678;9.158;2023-07-28T19:59:57;20.90;99.90
13433;DHT22;6789;47.678;9.158;2023-07-28T20:04:48;20.90;99.90
13433;DHT22;6789;47.678;9.158;2023-07-28T20:09:40;20.60;99.90
13433;DHT22;6789;47.678;9.158;2023-07-28T20:14:32;20.60;99.90
13433;DHT22;6789;47.678;9.158;2023-07-28T20:19:27;20.50;99.90
13433;DHT22;6789;47.678;9.158;2023-07-28T20:24:19;20.40;99.90
13433;DHT22;6789;47.678;9.158;2023-07-28T20:29:11;20.30;99.90
13433;DHT22;6789;47.678;9.158;2023-07-28T20:34:03;20.20;99.90
13433;DHT22;6789;47.678;9.158;2023-07-28T20:38:54;20.10;99.90
13433;DHT22;6789;47.678;9.158;2023-07-28T20:43:46;20.10;99.90
13433;DHT22;6789;47.678;9.158;2023-07-28T20:48:38;20.00;99.90
13433;DHT22;6789;47.678;9.158;2023-07-28T20:53:30;20.00;99.90
13433;DHT22;6789;47.678;9.158;2023-07-28T20:58:23;19.90;99.90
13433;DHT22;6789;47.678;9.158;2023-07-28T21:03:16;19.70;99.90
13433;DHT22;6789;47.678;9.158;2023-07-28T21:08:10;19.80;99.90
13433;DHT22;6789;47.678;9.158;2023-07-28T21:13:04;19.60;99.90
13433;DHT22;6789;47.678;9.158;2023-07-28T21:17:58;19.50;99.90
13433;DHT22;6789;47.678;9.158;2023-07-28T21:22:50;19.50;99.90
13433;DHT22;6789;47.678;9.158;2023-07-28T21:27:41;19.30;99.90
13433;DHT22;6789;47.678;9.158;2023-07-28T21:32:34;19.50;99.90
13433;DHT22;6789;47.678;9.158;2023-07-28T21:37:27;19.30;99.90
13433;DHT22;6789;47.678;9.158;2023-07-28T21:42:19;19.10;99.90
13433;DHT22;6789;47.678;9.158;2023-07-28T21:47:11;19.10;99.90
13433;DHT22;6789;47.678;9.158;2023-07-28T21:52:03;19.00;99.90
13433;DHT22;6789;47.678;9.158;2023-07-28T21:56:55;18.90;99.90
13433;DHT22;6789;47.678;9.158;2023-07-28T22:01:47;18.80;99.90
13433;DHT22;6789;47.678;9.158;2023-07-28T22:06:39;18.80;99.90
13433;DHT22;6789;47.678;9.158;2023-07-28T22:11:31;18.60;99.90
13433;DHT22;6789;47.678;9.158;2023-07-28T22:16:22;18.60;99.90
13433;DHT22;6789;47.678;9.158;2023-07-28T22:21:14;18.50;99.90
13433;DHT22;6789;47.678;9.158;2023-07-28T22:26:06;18.40;99.90
13433;DHT22;6789;47.678;9.158;2023-07-28T22:30:58;18.30;99.90
13433;DHT22;6789;47.678;9.158;2023-07-28T22:35:50;18.20;99.90
13433;DHT22;6789;47.678;9.158;2023-07-28T22:40:43;18.10;99.90
13433;DHT22;6789;47.678;9.158;2023-07-28T22:45:35;18.00;99.90
13433;DHT22;6789;47.678;9.158;2023-07-28T22:50:27;18.00;99.90
13433;DHT22;6789;47.678;9.158;2023-07-28T22:55:19;17.90;99.90
13433;DHT22;6789;47.678;9.158;2023-07-28T23:00:14;18.00;99.90
13433;DHT22;6789;47.678;9.158;2023-07-28T23:05:14;18.00;99.90
13433;DHT22;6789;47.678;9.158;2023-07-28T23:10:06;18.00;99.90
13433;DHT22;6789;47.678;9.158;2023-07-28T23:14:58;18.10;99.90
13433;DHT22;6789;47.678;9.158;2023-07-28T23:19:52;18.10;99.90
13433;DHT22;6789;47.678;9.158;2023-07-28T23:24:44;18.10;99.90
13433;DHT22;6789;47.678;9.158;2023-07-28T23:29:36;18.20;99.90
13433;DHT22;6789;47.678;9.158;2023-07-28T23:34:28;18.20;99.90
13433;DHT22;6789;47.678;9.158;2023-07-28T23:39:20;18.20;99.90
13433;DHT22;6789;47.678;9.158;2023-07-28T23:44:12;18.30;99.90
13433;DHT22;6789;47.678;9.158;2023-07-28T23:49:04;18.50;99.90
13433;DHT22;6789;47.678;9.158;2023-07-28T23:53:56;18.50;99.90
13433;DHT22;6789;47.678;9.158;2023-07-28T23:58:47;18.70;99.90
